sensor_id;sensor_type;location;lat;lon;timestamp;P1;durP1;ratioP1;P2;durP2;ratioP2
62151;SDS011;48139;47.474;19.034;2022-08-19T03:58:24;13.60;;;8.30;;
62151;SDS011;48139;47.474;19.034;2022-08-19T04:01:28;12.68;;;8.38;;
62151;SDS011;48139;47.474;19.034;2022-08-19T04:04:40;12.98;;;8.50;;
62151;SDS011;48139;47.474;19.034;2022-08-19T04:07:45;10.25;;;7.80;;
62151;SDS011;48139;47.474;19.034;2022-08-19T04:10:48;12.18;;;8.90;;
62151;SDS011;48139;47.474;19.034;2022-08-19T04:13:51;10.88;;;7.78;;
62151;SDS011;48139;47.474;19.034;2022-08-19T04:16:55;11.55;;;8.13;;
62151;SDS011;48139;47.474;19.034;2022-08-19T04:19:58;12.30;;;7.97;;
62151;SDS011;48139;47.474;19.034;2022-08-19T04:23:02;11.02;;;8.48;;
62151;SDS011;48139;47.474;19.034;2022-08-19T04:26:04;12.55;;;7.97;;
62151;SDS011;48139;47.474;19.034;2022-08-19T04:29:12;14.07;;;9.18;;
62151;SDS011;48139;47.474;19.034;2022-08-19T04:32:17;10.73;;;7.50;;
62151;SDS011;48139;47.474;19.034;2022-08-19T04:35:20;10.73;;;7.53;;
62151;SDS011;48139;47.474;19.034;2022-08-19T04:38:26;11.48;;;7.70;;
62151;SDS011;48139;47.474;19.034;2022-08-19T04:41:28;13.62;;;7.78;;
62151;SDS011;48139;47.474;19.034;2022-08-19T04:44:49;10.75;;;7.85;;
62151;SDS011;48139;47.474;19.034;2022-08-19T04:47:54;12.50;;;8.82;;
62151;SDS011;48139;47.474;19.034;2022-08-19T04:51:20;11.60;;;8.32;;
62151;SDS011;48139;47.474;19.034;2022-08-19T04:54:23;11.30;;;7.53;;
62151;SDS011;48139;47.474;19.034;2022-08-19T04:57:40;24.63;;;8.95;;
62151;SDS011;48139;47.474;19.034;2022-08-19T05:03:45;10.93;;;7.90;;
62151;SDS011;48139;47.474;19.034;2022-08-19T05:06:48;12.37;;;8.10;;
62151;SDS011;48139;47.474;19.034;2022-08-19T05:09:52;12.30;;;7.78;;
62151;SDS011;48139;47.474;19.034;2022-08-19T05:13:00;13.85;;;7.85;;
62151;SDS011;48139;47.474;19.034;2022-08-19T05:16:02;12.75;;;9.13;;
62151;SDS011;48139;47.474;19.034;2022-08-19T05:22:26;11.48;;;7.22;;
62151;SDS011;48139;47.474;19.034;2022-08-19T05:25:35;11.75;;;7.60;;
62151;SDS011;48139;47.474;19.034;2022-08-19T05:28:42;13.32;;;6.87;;
62151;SDS011;48139;47.474;19.034;2022-08-19T05:31:46;12.48;;;7.03;;
62151;SDS011;48139;47.474;19.034;2022-08-19T05:34:53;10.93;;;6.72;;
62151;SDS011;48139;47.474;19.034;2022-08-19T05:37:56;11.82;;;6.80;;
62151;SDS011;48139;47.474;19.034;2022-08-19T05:41:00;10.27;;;6.72;;
62151;SDS011;48139;47.474;19.034;2022-08-19T05:44:04;10.88;;;7.53;;
62151;SDS011;48139;47.474;19.034;2022-08-19T05:47:12;12.77;;;6.87;;
62151;SDS011;48139;47.474;19.034;2022-08-19T05:50:17;11.00;;;7.12;;
62151;SDS011;48139;47.474;19.034;2022-08-19T05:53:19;9.90;;;6.25;;
62151;SDS011;48139;47.474;19.034;2022-08-19T05:56:22;10.30;;;6.12;;
62151;SDS011;48139;47.474;19.034;2022-08-19T06:02:29;14.80;;;7.05;;
62151;SDS011;48139;47.474;19.034;2022-08-19T06:05:35;13.62;;;7.60;;
62151;SDS011;48139;47.474;19.034;2022-08-19T06:08:53;11.77;;;7.47;;
62151;SDS011;48139;47.474;19.034;2022-08-19T06:11:57;11.45;;;7.18;;
62151;SDS011;48139;47.474;19.034;2022-08-19T06:15:03;11.20;;;6.32;;
62151;SDS011;48139;47.474;19.034;2022-08-19T06:18:08;13.35;;;7.15;;
62151;SDS011;48139;47.474;19.034;2022-08-19T06:21:11;14.18;;;5.85;;
62151;SDS011;48139;47.474;19.034;2022-08-19T06:24:15;11.82;;;7.25;;
62151;SDS011;48139;47.474;19.034;2022-08-19T06:27:20;10.00;;;6.80;;
62151;SDS011;48139;47.474;19.034;2022-08-19T06:30:23;11.27;;;6.75;;
62151;SDS011;48139;47.474;19.034;2022-08-19T06:36:33;11.15;;;5.72;;
62151;SDS011;48139;47.474;19.034;2022-08-19T06:39:40;14.23;;;7.30;;
62151;SDS011;48139;47.474;19.034;2022-08-19T06:42:44;11.23;;;6.55;;
62151;SDS011;48139;47.474;19.034;2022-08-19T06:45:56;12.55;;;6.80;;
62151;SDS011;48139;47.474;19.034;2022-08-19T06:49:00;11.90;;;6.68;;
62151;SDS011;48139;47.474;19.034;2022-08-19T06:52:03;12.30;;;6.53;;
62151;SDS011;48139;47.474;19.034;2022-08-19T06:55:07;14.48;;;6.87;;
62151;SDS011;48139;47.474;19.034;2022-08-19T06:58:10;17.10;;;7.07;;
62151;SDS011;48139;47.474;19.034;2022-08-19T07:01:13;11.73;;;5.90;;
62151;SDS011;48139;47.474;19.034;2022-08-19T07:07:20;10.05;;;6.32;;
62151;SDS011;48139;47.474;19.034;2022-08-19T07:10:23;48.28;;;12.48;;
62151;SDS011;48139;47.474;19.034;2022-08-19T07:13:27;18.35;;;6.90;;
62151;SDS011;48139;47.474;19.034;2022-08-19T07:16:29;11.02;;;7.85;;
62151;SDS011;48139;47.474;19.034;2022-08-19T07:19:33;10.90;;;6.75;;
62151;SDS011;48139;47.474;19.034;2022-08-19T07:22:37;11.15;;;7.22;;
62151;SDS011;48139;47.474;19.034;2022-08-19T07:25:41;12.85;;;7.00;;
62151;SDS011;48139;47.474;19.034;2022-08-19T07:28:46;10.80;;;7.32;;
62151;SDS011;48139;47.474;19.034;2022-08-19T07:31:54;14.38;;;6.72;;
62151;SDS011;48139;47.474;19.034;2022-08-19T07:35:01;12.65;;;6.93;;
62151;SDS011;48139;47.474;19.034;2022-08-19T07:38:05;22.25;;;7.20;;
62151;SDS011;48139;47.474;19.034;2022-08-19T07:44:15;13.65;;;6.43;;
62151;SDS011;48139;47.474;19.034;2022-08-19T07:47:18;14.00;;;6.43;;
62151;SDS011;48139;47.474;19.034;2022-08-19T07:50:41;12.15;;;7.32;;
62151;SDS011;48139;47.474;19.034;2022-08-19T07:53:44;10.05;;;6.45;;
62151;SDS011;48139;47.474;19.034;2022-08-19T07:56:48;10.88;;;6.10;;
62151;SDS011;48139;47.474;19.034;2022-08-19T07:59:53;13.48;;;6.55;;
62151;SDS011;48139;47.474;19.034;2022-08-19T08:02:56;8.73;;;5.60;;
62151;SDS011;48139;47.474;19.034;2022-08-19T08:05:59;11.40;;;5.97;;
62151;SDS011;48139;47.474;19.034;2022-08-19T08:09:42;12.65;;;6.60;;
62151;SDS011;48139;47.474;19.034;2022-08-19T08:12:51;13.52;;;5.53;;
62151;SDS011;48139;47.474;19.034;2022-08-19T08:16:11;12.13;;;5.72;;
62151;SDS011;48139;47.474;19.034;2022-08-19T08:19:19;11.52;;;5.57;;
62151;SDS011;48139;47.474;19.034;2022-08-19T08:22:26;14.00;;;6.07;;
62151;SDS011;48139;47.474;19.034;2022-08-19T08:25:48;9.68;;;5.40;;
62151;SDS011;48139;47.474;19.034;2022-08-19T08:28:52;15.15;;;5.25;;
62151;SDS011;48139;47.474;19.034;2022-08-19T08:31:55;14.63;;;5.68;;
62151;SDS011;48139;47.474;19.034;2022-08-19T08:35:01;13.77;;;5.72;;
62151;SDS011;48139;47.474;19.034;2022-08-19T08:38:04;10.30;;;5.37;;
62151;SDS011;48139;47.474;19.034;2022-08-19T08:41:55;9.65;;;5.90;;
62151;SDS011;48139;47.474;19.034;2022-08-19T08:44:59;7.50;;;4.93;;
62151;SDS011;48139;47.474;19.034;2022-08-19T08:48:10;8.50;;;5.25;;
62151;SDS011;48139;47.474;19.034;2022-08-19T08:51:27;10.25;;;4.75;;
62151;SDS011;48139;47.474;19.034;2022-08-19T08:54:38;8.52;;;4.93;;
62151;SDS011;48139;47.474;19.034;2022-08-19T09:01:11;9.52;;;5.78;;
62151;SDS011;48139;47.474;19.034;2022-08-19T09:04:15;11.63;;;4.80;;
62151;SDS011;48139;47.474;19.034;2022-08-19T09:07:25;10.82;;;5.40;;
62151;SDS011;48139;47.474;19.034;2022-08-19T09:10:46;10.30;;;5.75;;
62151;SDS011;48139;47.474;19.034;2022-08-19T09:17:33;9.02;;;4.95;;
62151;SDS011;48139;47.474;19.034;2022-08-19T09:20:37;8.88;;;5.82;;
62151;SDS011;48139;47.474;19.034;2022-08-19T09:23:44;8.68;;;5.57;;
62151;SDS011;48139;47.474;19.034;2022-08-19T09:26:51;10.80;;;5.40;;
62151;SDS011;48139;47.474;19.034;2022-08-19T09:29:54;8.65;;;4.82;;
62151;SDS011;48139;47.474;19.034;2022-08-19T09:36:06;8.82;;;5.37;;
62151;SDS011;48139;47.474;19.034;2022-08-19T09:39:11;8.65;;;5.62;;
62151;SDS011;48139;47.474;19.034;2022-08-19T09:42:17;13.73;;;5.95;;
62151;SDS011;48139;47.474;19.034;2022-08-19T09:45:36;9.07;;;4.85;;
62151;SDS011;48139;47.474;19.034;2022-08-19T09:48:39;11.00;;;6.10;;
62151;SDS011;48139;47.474;19.034;2022-08-19T09:51:42;12.60;;;5.40;;
62151;SDS011;48139;47.474;19.034;2022-08-19T09:54:52;12.23;;;6.10;;
62151;SDS011;48139;47.474;19.034;2022-08-19T09:57:55;8.73;;;5.70;;
62151;SDS011;48139;47.474;19.034;2022-08-19T10:00:58;9.10;;;5.18;;
62151;SDS011;48139;47.474;19.034;2022-08-19T10:04:02;11.45;;;5.25;;
62151;SDS011;48139;47.474;19.034;2022-08-19T10:07:21;9.85;;;5.60;;
62151;SDS011;48139;47.474;19.034;2022-08-19T10:10:37;11.07;;;5.45;;
62151;SDS011;48139;47.474;19.034;2022-08-19T10:13:44;10.10;;;5.15;;
62151;SDS011;48139;47.474;19.034;2022-08-19T10:16:47;10.00;;;4.90;;
62151;SDS011;48139;47.474;19.034;2022-08-19T10:19:49;9.43;;;5.85;;
62151;SDS011;48139;47.474;19.034;2022-08-19T10:22:57;8.63;;;5.03;;
62151;SDS011;48139;47.474;19.034;2022-08-19T10:26:03;9.77;;;6.03;;
62151;SDS011;48139;47.474;19.034;2022-08-19T10:29:08;7.20;;;4.60;;
62151;SDS011;48139;47.474;19.034;2022-08-19T10:32:12;10.30;;;5.45;;
62151;SDS011;48139;47.474;19.034;2022-08-19T10:35:16;9.52;;;5.10;;
62151;SDS011;48139;47.474;19.034;2022-08-19T10:38:24;12.77;;;5.97;;
62151;SDS011;48139;47.474;19.034;2022-08-19T10:41:35;10.93;;;6.05;;
62151;SDS011;48139;47.474;19.034;2022-08-19T10:44:40;13.38;;;6.57;;
62151;SDS011;48139;47.474;19.034;2022-08-19T10:47:43;10.07;;;5.07;;
62151;SDS011;48139;47.474;19.034;2022-08-19T10:50:46;7.43;;;4.60;;
62151;SDS011;48139;47.474;19.034;2022-08-19T10:54:07;8.93;;;4.78;;
62151;SDS011;48139;47.474;19.034;2022-08-19T10:57:14;10.77;;;5.05;;
62151;SDS011;48139;47.474;19.034;2022-08-19T11:00:18;9.85;;;5.07;;
62151;SDS011;48139;47.474;19.034;2022-08-19T11:03:22;8.82;;;6.18;;
62151;SDS011;48139;47.474;19.034;2022-08-19T11:06:27;7.32;;;5.03;;
62151;SDS011;48139;47.474;19.034;2022-08-19T11:09:30;11.10;;;6.05;;
62151;SDS011;48139;47.474;19.034;2022-08-19T11:12:36;9.02;;;5.53;;
62151;SDS011;48139;47.474;19.034;2022-08-19T11:15:41;9.50;;;7.40;;
62151;SDS011;48139;47.474;19.034;2022-08-19T11:18:46;12.88;;;6.55;;
62151;SDS011;48139;47.474;19.034;2022-08-19T11:21:51;9.50;;;6.37;;
62151;SDS011;48139;47.474;19.034;2022-08-19T11:24:58;11.88;;;6.72;;
62151;SDS011;48139;47.474;19.034;2022-08-19T11:28:01;17.33;;;7.40;;
62151;SDS011;48139;47.474;19.034;2022-08-19T11:31:04;11.20;;;6.53;;
62151;SDS011;48139;47.474;19.034;2022-08-19T11:34:12;10.27;;;5.45;;
62151;SDS011;48139;47.474;19.034;2022-08-19T11:37:18;11.02;;;5.78;;
62151;SDS011;48139;47.474;19.034;2022-08-19T11:40:22;10.70;;;5.80;;
62151;SDS011;48139;47.474;19.034;2022-08-19T11:43:25;14.15;;;5.95;;
62151;SDS011;48139;47.474;19.034;2022-08-19T11:46:28;10.68;;;4.80;;
62151;SDS011;48139;47.474;19.034;2022-08-19T11:49:31;8.85;;;6.32;;
62151;SDS011;48139;47.474;19.034;2022-08-19T11:52:34;10.50;;;5.40;;
62151;SDS011;48139;47.474;19.034;2022-08-19T11:55:38;10.77;;;6.28;;
62151;SDS011;48139;47.474;19.034;2022-08-19T11:58:45;10.05;;;6.22;;
62151;SDS011;48139;47.474;19.034;2022-08-19T12:01:48;11.80;;;6.53;;
62151;SDS011;48139;47.474;19.034;2022-08-19T12:04:51;10.70;;;6.37;;
62151;SDS011;48139;47.474;19.034;2022-08-19T12:07:54;10.27;;;7.78;;
62151;SDS011;48139;47.474;19.034;2022-08-19T12:10:57;12.45;;;8.00;;
62151;SDS011;48139;47.474;19.034;2022-08-19T12:13:59;15.25;;;8.15;;
62151;SDS011;48139;47.474;19.034;2022-08-19T12:17:02;14.10;;;9.27;;
62151;SDS011;48139;47.474;19.034;2022-08-19T12:20:10;16.62;;;8.52;;
62151;SDS011;48139;47.474;19.034;2022-08-19T12:23:13;14.05;;;8.75;;
62151;SDS011;48139;47.474;19.034;2022-08-19T12:26:16;13.85;;;8.55;;
62151;SDS011;48139;47.474;19.034;2022-08-19T12:29:20;11.10;;;7.82;;
62151;SDS011;48139;47.474;19.034;2022-08-19T12:32:25;12.95;;;8.82;;
62151;SDS011;48139;47.474;19.034;2022-08-19T12:35:28;12.00;;;8.25;;
62151;SDS011;48139;47.474;19.034;2022-08-19T12:38:33;13.15;;;8.68;;
62151;SDS011;48139;47.474;19.034;2022-08-19T12:41:39;13.85;;;9.40;;
62151;SDS011;48139;47.474;19.034;2022-08-19T12:44:55;13.45;;;10.18;;
62151;SDS011;48139;47.474;19.034;2022-08-19T12:47:58;14.15;;;9.57;;
62151;SDS011;48139;47.474;19.034;2022-08-19T12:51:08;15.02;;;10.93;;
62151;SDS011;48139;47.474;19.034;2022-08-19T12:54:12;21.92;;;11.55;;
62151;SDS011;48139;47.474;19.034;2022-08-19T12:57:15;12.52;;;11.05;;
62151;SDS011;48139;47.474;19.034;2022-08-19T13:00:19;14.90;;;12.02;;
62151;SDS011;48139;47.474;19.034;2022-08-19T13:03:23;19.85;;;12.75;;
62151;SDS011;48139;47.474;19.034;2022-08-19T13:06:31;16.05;;;12.57;;
62151;SDS011;48139;47.474;19.034;2022-08-19T13:09:33;21.67;;;13.93;;
62151;SDS011;48139;47.474;19.034;2022-08-19T13:12:36;13.60;;;11.70;;
62151;SDS011;48139;47.474;19.034;2022-08-19T13:15:40;13.95;;;11.07;;
62151;SDS011;48139;47.474;19.034;2022-08-19T13:18:44;11.30;;;7.60;;
62151;SDS011;48139;47.474;19.034;2022-08-19T13:21:54;8.13;;;5.70;;
62151;SDS011;48139;47.474;19.034;2022-08-19T13:25:02;8.45;;;5.37;;
62151;SDS011;48139;47.474;19.034;2022-08-19T13:28:07;7.68;;;5.15;;
62151;SDS011;48139;47.474;19.034;2022-08-19T13:31:15;12.20;;;5.18;;
62151;SDS011;48139;47.474;19.034;2022-08-19T13:34:38;11.95;;;4.90;;
62151;SDS011;48139;47.474;19.034;2022-08-19T13:37:41;10.73;;;4.78;;
62151;SDS011;48139;47.474;19.034;2022-08-19T13:40:44;11.18;;;4.68;;
62151;SDS011;48139;47.474;19.034;2022-08-19T13:43:47;10.27;;;4.30;;
62151;SDS011;48139;47.474;19.034;2022-08-19T13:46:50;12.98;;;4.97;;
62151;SDS011;48139;47.474;19.034;2022-08-19T13:49:56;11.73;;;4.82;;
62151;SDS011;48139;47.474;19.034;2022-08-19T13:52:58;10.55;;;5.25;;
62151;SDS011;48139;47.474;19.034;2022-08-19T13:56:04;11.12;;;5.62;;
62151;SDS011;48139;47.474;19.034;2022-08-19T13:59:07;17.75;;;5.25;;
62151;SDS011;48139;47.474;19.034;2022-08-19T14:02:10;26.67;;;6.80;;
62151;SDS011;48139;47.474;19.034;2022-08-19T14:05:14;43.50;;;8.77;;
62151;SDS011;48139;47.474;19.034;2022-08-19T14:08:18;24.37;;;6.97;;
62151;SDS011;48139;47.474;19.034;2022-08-19T14:11:21;18.27;;;5.18;;
62151;SDS011;48139;47.474;19.034;2022-08-19T14:14:24;10.43;;;4.45;;
62151;SDS011;48139;47.474;19.034;2022-08-19T14:17:27;14.80;;;5.47;;
62151;SDS011;48139;47.474;19.034;2022-08-19T14:20:33;10.95;;;5.32;;
62151;SDS011;48139;47.474;19.034;2022-08-19T14:23:37;17.55;;;5.25;;
62151;SDS011;48139;47.474;19.034;2022-08-19T14:29:42;13.98;;;5.37;;
62151;SDS011;48139;47.474;19.034;2022-08-19T14:32:45;9.77;;;4.20;;
62151;SDS011;48139;47.474;19.034;2022-08-19T14:35:47;11.38;;;4.35;;
62151;SDS011;48139;47.474;19.034;2022-08-19T14:38:50;14.15;;;3.85;;
62151;SDS011;48139;47.474;19.034;2022-08-19T14:41:53;9.50;;;3.47;;
62151;SDS011;48139;47.474;19.034;2022-08-19T14:44:58;12.35;;;3.95;;
62151;SDS011;48139;47.474;19.034;2022-08-19T14:48:03;9.35;;;3.17;;
62151;SDS011;48139;47.474;19.034;2022-08-19T14:51:06;13.05;;;4.43;;
62151;SDS011;48139;47.474;19.034;2022-08-19T14:54:10;8.77;;;3.10;;
